TimeEDT,TemperatureF,Dew PointF,Humidity,Sea Level PressureIn,VisibilityMPH,Wind Direction,Wind SpeedMPH,Gust SpeedMPH,PrecipitationIn,Events,Conditions,WindDirDegrees,DateUTC
12:54 AM,63.0,62.1,97,29.95,10.0,NE,3.5,-,N/A,,Partly Cloudy,40,2012-10-07 04:54:00
1:54 AM,62.1,61.0,96,29.96,10.0,Variable,4.6,-,N/A,,Scattered Clouds,0,2012-10-07 05:54:00
2:54 AM,61.0,61.0,100,29.95,9.0,NE,4.6,-,N/A,,Clear,50,2012-10-07 06:54:00
3:02 AM,61.0,61.0,100,29.98,9.0,Variable,3.5,-,N/A,,Scattered Clouds,0,2012-10-07 07:02:00
3:12 AM,62.1,61.0,96,29.98,10.0,ENE,4.6,-,N/A,,Mostly Cloudy,60,2012-10-07 07:12:00
3:54 AM,61.0,61.0,100,29.95,9.0,Variable,6.9,-,N/A,,Overcast,0,2012-10-07 07:54:00
4:54 AM,60.1,59.0,96,29.95,10.0,NE,3.5,-,N/A,,Overcast,50,2012-10-07 08:54:00
5:22 AM,57.9,55.9,93,29.98,10.0,NE,5.8,-,N/A,,Overcast,40,2012-10-07 09:22:00
5:54 AM,57.0,54.0,89,29.95,10.0,Variable,3.5,-,N/A,,Mostly Cloudy,0,2012-10-07 09:54:00
6:54 AM,55.9,55.0,97,29.96,10.0,Calm,Calm,-,N/A,,Mostly Cloudy,0,2012-10-07 10:54:00
7:15 AM,55.9,55.0,97,30.01,10.0,NNE,4.6,-,0.00,Rain-Thunderstorm,Light Rain,20,2012-10-07 11:15:00
7:23 AM,57.0,55.0,93,30.08,10.0,NNW,10.4,29.9,0.00,Rain-Thunderstorm,Light Thunderstorms and Rain,340,2012-10-07 11:23:00
7:36 AM,57.9,57.0,97,30.06,2.5,North,12.7,18.4,0.08,Rain-Thunderstorm,Heavy Thunderstorms and Rain,360,2012-10-07 11:36:00
7:44 AM,57.0,55.9,96,30.06,3.0,NNE,10.4,19.6,0.09,Rain-Thunderstorm,Light Rain,30,2012-10-07 11:44:00
7:54 AM,55.9,55.0,97,30.03,8.0,NNE,8.1,-,0.09,Rain-Thunderstorm,Light Rain,30,2012-10-07 11:54:00
8:08 AM,55.9,55.0,97,30.03,10.0,NE,8.1,-,0.00,,Overcast,40,2012-10-07 12:08:00
8:44 AM,55.9,55.0,97,30.04,10.0,Variable,3.5,-,0.00,,Overcast,0,2012-10-07 12:44:00
8:54 AM,55.9,55.0,97,30.01,10.0,Variable,4.6,-,0.00,,Mostly Cloudy,0,2012-10-07 12:54:00
9:01 AM,55.9,55.0,97,30.03,10.0,ENE,4.6,-,N/A,,Mostly Cloudy,60,2012-10-07 13:01:00
9:54 AM,57.0,55.0,93,30.02,10.0,Variable,4.6,-,N/A,,Overcast,0,2012-10-07 13:54:00
10:22 AM,57.9,55.9,93,30.06,10.0,NE,4.6,-,N/A,,Overcast,40,2012-10-07 14:22:00
10:54 AM,57.9,55.0,90,30.04,10.0,Variable,4.6,-,N/A,,Overcast,0,2012-10-07 14:54:00
11:31 AM,59.0,55.9,90,30.06,10.0,ENE,5.8,-,N/A,,Overcast,60,2012-10-07 15:31:00
11:51 AM,59.0,55.4,88,30.06,10.0,NE,4.6,-,N/A,,Overcast,50,2012-10-07 15:51:00
11:54 AM,59.0,55.9,90,30.05,10.0,Variable,3.5,-,N/A,,Overcast,0,2012-10-07 15:54:00
1:14 PM,59.0,55.9,90,30.04,10.0,NE,4.6,-,N/A,,Overcast,40,2012-10-07 17:14:00
1:54 PM,59.0,55.9,90,30.03,10.0,NNE,4.6,-,N/A,,Overcast,20,2012-10-07 17:54:00
2:54 PM,60.1,55.0,83,30.00,10.0,Variable,3.5,-,N/A,,Overcast,0,2012-10-07 18:54:00
3:54 PM,60.1,55.9,86,30.02,10.0,Calm,Calm,-,N/A,,Overcast,0,2012-10-07 19:54:00
4:54 PM,60.1,55.9,86,30.03,10.0,NNE,10.4,-,N/A,,Overcast,20,2012-10-07 20:54:00
5:36 PM,57.0,55.0,93,30.08,6.0,NNE,8.1,-,N/A,,Overcast,30,2012-10-07 21:36:00
5:54 PM,55.9,55.0,97,30.07,5.0,NNE,10.4,-,0.00,Rain,Light Rain,30,2012-10-07 21:54:00
6:54 PM,55.9,54.0,93,30.08,8.0,Variable,5.8,-,0.00,,Overcast,0,2012-10-07 22:54:00
7:54 PM,55.9,53.1,90,30.09,10.0,NE,5.8,-,N/A,,Overcast,50,2012-10-07 23:54:00
8:54 PM,55.9,53.1,90,30.10,10.0,Variable,4.6,-,N/A,,Overcast,0,2012-10-08 00:54:00
9:54 PM,55.9,51.1,84,30.12,10.0,NNE,8.1,-,N/A,,Overcast,30,2012-10-08 01:54:00
10:54 PM,55.0,51.1,86,30.12,10.0,NNE,8.1,-,N/A,,Overcast,30,2012-10-08 02:54:00
11:54 PM,55.0,50.0,83,30.12,10.0,ENE,6.9,-,N/A,,Overcast,60,2012-10-08 03:54:00